Time,TemperatureF,DewpointF,PressureIn,WindDirection,WindDirectionDegrees,WindSpeedMPH,WindSpeedGustMPH,Humidity,HourlyPrecipIn,Conditions,Clouds,dailyrainin,SoftwareType,DateUTC
2013-04-18 00:02:00,32.0,30.0,-100.00,NNE,25,9.0,14.0,97,0.00,,,0.00,,2013-04-18 05:02:00,
2013-04-18 00:12:00,31.0,30.0,-100.00,NE,35,7.0,13.0,97,0.00,,,0.00,,2013-04-18 05:12:00,
2013-04-18 00:22:00,31.0,30.0,-100.00,NNE,25,6.0,10.0,97,0.00,,,0.00,,2013-04-18 05:22:00,
2013-04-18 00:33:00,31.0,30.0,-100.00,NNE,20,6.0,10.0,98,0.00,,,0.00,,2013-04-18 05:33:00,
2013-04-18 00:42:00,31.0,30.0,-100.00,NE,40,6.0,10.0,98,0.00,,,0.00,,2013-04-18 05:42:00,
2013-04-18 00:52:00,31.0,30.0,-100.00,NE,35,5.0,11.0,98,0.00,,,0.00,,2013-04-18 05:52:00,
2013-04-18 01:02:00,31.0,30.0,-100.00,NNE,30,6.0,9.0,97,0.00,,,0.00,,2013-04-18 06:02:00,
2013-04-18 01:12:00,31.0,30.0,-100.00,NNE,25,4.0,9.0,97,0.00,,,0.00,,2013-04-18 06:12:00,
2013-04-18 01:22:00,31.0,30.0,-100.00,NNE,30,6.0,12.0,98,0.00,,,0.00,,2013-04-18 06:22:00,
2013-04-18 01:32:00,31.0,30.0,-100.00,NNE,30,7.0,10.0,98,0.00,,,0.00,,2013-04-18 06:32:00,
2013-04-18 01:42:00,31.0,30.0,-100.00,NNE,25,8.0,12.0,98,0.00,,,0.00,,2013-04-18 06:42:00,
2013-04-18 01:52:00,31.0,30.0,-100.00,NNE,25,7.0,11.0,98,0.00,,,0.00,,2013-04-18 06:52:00,
2013-04-18 02:02:00,31.0,30.0,-100.00,NNE,30,4.0,10.0,98,0.00,,,0.00,,2013-04-18 07:02:00,
2013-04-18 02:12:00,31.0,30.0,-100.00,NNE,30,9.0,12.0,98,0.00,,,0.00,,2013-04-18 07:12:00,
2013-04-18 02:22:00,31.0,30.0,-100.00,NNE,15,9.0,14.0,98,0.00,,,0.00,,2013-04-18 07:22:00,
2013-04-18 02:32:00,31.0,30.0,-100.00,NNE,20,7.0,13.0,97,0.00,,,0.00,,2013-04-18 07:32:00,
2013-04-18 02:42:00,31.0,30.0,-100.00,NE,35,9.0,14.0,97,0.00,,,0.00,,2013-04-18 07:42:00,
2013-04-18 02:52:00,31.0,30.0,-100.00,NNE,30,11.0,15.0,97,0.00,,,0.00,,2013-04-18 07:52:00,
2013-04-18 03:02:00,31.0,30.0,-100.00,NNE,25,7.0,13.0,97,0.00,,,0.00,,2013-04-18 08:02:00,
2013-04-18 03:12:00,31.0,30.0,-100.00,NNE,25,4.0,12.0,97,0.00,,,0.00,,2013-04-18 08:12:00,
2013-04-18 03:22:00,31.0,30.0,-100.00,NNE,20,5.0,11.0,97,0.00,,,0.00,,2013-04-18 08:22:00,
2013-04-18 03:32:00,31.0,30.0,-100.00,North,355,4.0,11.0,97,0.00,,,0.00,,2013-04-18 08:32:00,
2013-04-18 03:42:00,31.0,30.0,-100.00,North,10,7.0,13.0,96,0.00,,,0.00,,2013-04-18 08:42:00,
2013-04-18 03:52:00,31.0,30.0,-100.00,NNE,20,5.0,11.0,96,0.00,,,0.00,,2013-04-18 08:52:00,
2013-04-18 04:02:00,31.0,30.0,-100.00,NNE,15,6.0,11.0,96,0.00,,,0.00,,2013-04-18 09:02:00,
2013-04-18 04:12:00,31.0,30.0,-100.00,NNE,15,5.0,10.0,96,0.00,,,0.00,,2013-04-18 09:12:00,
2013-04-18 04:22:00,31.0,30.0,-100.00,NNE,20,6.0,9.0,96,0.00,,,0.00,,2013-04-18 09:22:00,
2013-04-18 04:33:00,31.0,30.0,-100.00,North,5,4.0,9.0,96,0.00,,,0.00,,2013-04-18 09:33:00,
2013-04-18 04:42:00,31.0,30.0,-100.00,NNE,20,6.0,9.0,96,0.00,,,0.00,,2013-04-18 09:42:00,
2013-04-18 04:53:00,31.0,30.0,-100.00,North,355,2.0,9.0,96,0.00,,,0.00,,2013-04-18 09:53:00,
2013-04-18 05:03:00,31.0,30.0,-100.00,NNE,25,3.0,12.0,95,0.00,,,0.00,,2013-04-18 10:03:00,
2013-04-18 05:12:00,31.0,30.0,-100.00,North,0,5.0,10.0,95,0.00,,,0.00,,2013-04-18 10:12:00,
2013-04-18 05:23:00,31.0,30.0,-100.00,North,0,5.0,10.0,96,0.00,,,0.00,,2013-04-18 10:23:00,
2013-04-18 05:32:00,31.0,30.0,-100.00,North,0,6.0,11.0,96,0.00,,,0.00,,2013-04-18 10:32:00,
2013-04-18 05:42:00,31.0,30.0,-100.00,NNE,20,5.0,10.0,96,0.00,,,0.00,,2013-04-18 10:42:00,
2013-04-18 05:52:00,31.0,30.0,-100.00,NNE,20,6.0,12.0,96,0.00,,,0.00,,2013-04-18 10:52:00,
2013-04-18 06:02:00,31.0,30.0,-100.00,North,10,6.0,14.0,97,0.00,,,0.00,,2013-04-18 11:02:00,
2013-04-18 06:12:00,31.0,30.0,-100.00,North,0,4.0,9.0,97,0.00,,,0.00,,2013-04-18 11:12:00,
2013-04-18 06:22:00,31.0,30.0,-100.00,NNE,30,7.0,11.0,97,0.00,,,0.00,,2013-04-18 11:22:00,
2013-04-18 06:32:00,30.0,30.0,-100.00,North,5,4.0,10.0,97,0.00,,,0.00,,2013-04-18 11:32:00,
2013-04-18 06:42:00,30.0,30.0,-100.00,NNE,15,6.0,11.0,97,0.00,,,0.00,,2013-04-18 11:42:00,
2013-04-18 06:52:00,30.0,30.0,-100.00,NNE,15,4.0,12.0,97,0.00,,,0.00,,2013-04-18 11:52:00,
2013-04-18 07:02:00,30.0,30.0,-100.00,North,0,6.0,11.0,96,0.00,,,0.00,,2013-04-18 12:02:00,
2013-04-18 07:12:00,30.0,30.0,-100.00,North,10,4.0,11.0,96,0.00,,,0.00,,2013-04-18 12:12:00,
2013-04-18 07:22:00,30.0,28.0,-100.00,NE,35,9.0,16.0,96,0.00,,,0.00,,2013-04-18 12:22:00,
2013-04-18 07:32:00,31.0,30.0,-100.00,NNE,25,5.0,14.0,95,0.00,,,0.00,,2013-04-18 12:32:00,
2013-04-18 07:42:00,31.0,30.0,-100.00,NNE,20,4.0,12.0,95,0.00,,,0.00,,2013-04-18 12:42:00,
2013-04-18 07:52:00,31.0,30.0,-100.00,North,5,4.0,13.0,94,0.00,,,0.00,,2013-04-18 12:52:00,
2013-04-18 08:02:00,31.0,30.0,-100.00,North,5,6.0,13.0,93,0.00,,,0.00,,2013-04-18 13:02:00,
2013-04-18 08:12:00,31.0,30.0,-100.00,North,0,6.0,13.0,93,0.00,,,0.00,,2013-04-18 13:12:00,
2013-04-18 08:22:00,31.0,28.0,-100.00,North,5,6.0,11.0,92,0.00,,,0.00,,2013-04-18 13:22:00,
2013-04-18 08:32:00,31.0,28.0,-100.00,NNE,15,7.0,17.0,92,0.00,,,0.00,,2013-04-18 13:32:00,
2013-04-18 08:42:00,31.0,28.0,-100.00,NNE,25,9.0,14.0,91,0.00,,,0.00,,2013-04-18 13:42:00,
2013-04-18 08:52:00,31.0,28.0,-100.00,NE,35,7.0,14.0,91,0.00,,,0.00,,2013-04-18 13:52:00,
2013-04-18 09:02:00,32.0,28.0,-100.00,North,10,9.0,16.0,90,0.00,,,0.00,,2013-04-18 14:02:00,
2013-04-18 09:12:00,32.0,28.0,-100.00,NNE,25,11.0,19.0,90,0.00,,,0.00,,2013-04-18 14:12:00,
2013-04-18 09:22:00,32.0,28.0,-100.00,NNE,15,10.0,18.0,89,0.00,,,0.00,,2013-04-18 14:22:00,
2013-04-18 09:32:00,32.0,28.0,-100.00,NNE,30,8.0,16.0,90,0.00,,,0.00,,2013-04-18 14:32:00,
2013-04-18 09:42:00,32.0,28.0,-100.00,NNE,30,9.0,16.0,90,0.00,,,0.00,,2013-04-18 14:42:00,
2013-04-18 09:52:00,32.0,30.0,-100.00,NNE,25,9.0,16.0,91,0.00,,,0.00,,2013-04-18 14:52:00,
2013-04-18 10:02:00,31.0,30.0,-100.00,North,0,10.0,20.0,91,0.00,,,0.00,,2013-04-18 15:02:00,
2013-04-18 10:12:00,32.0,30.0,-100.00,NE,40,11.0,17.0,91,0.00,,,0.00,,2013-04-18 15:12:00,
2013-04-18 10:22:00,32.0,28.0,-100.00,NNE,20,12.0,21.0,91,0.00,,,0.00,,2013-04-18 15:22:00,
2013-04-18 10:33:00,32.0,28.0,-100.00,NNE,25,9.0,19.0,90,0.00,,,0.00,,2013-04-18 15:33:00,
2013-04-18 10:42:00,32.0,28.0,-100.00,NNE,20,12.0,24.0,88,0.00,,,0.00,,2013-04-18 15:42:00,
2013-04-18 10:52:00,32.0,28.0,-100.00,NNE,30,11.0,21.0,88,0.00,,,0.00,,2013-04-18 15:52:00,
2013-04-18 11:03:00,32.0,28.0,-100.00,NNE,30,10.0,21.0,87,0.00,,,0.00,,2013-04-18 16:03:00,
2013-04-18 11:13:00,32.0,28.0,-100.00,NNE,25,12.0,19.0,87,0.00,,,0.00,,2013-04-18 16:13:00,
2013-04-18 11:22:00,32.0,28.0,-100.00,NNE,25,9.0,16.0,87,0.00,,,0.00,,2013-04-18 16:22:00,
2013-04-18 11:33:00,32.0,28.0,-100.00,NNE,25,12.0,19.0,88,0.00,,,0.00,,2013-04-18 16:33:00,
2013-04-18 11:42:00,32.0,30.0,-100.00,NNE,25,7.0,16.0,89,0.00,,,0.00,,2013-04-18 16:42:00,
2013-04-18 11:52:00,32.0,30.0,-100.00,North,0,7.0,19.0,91,0.00,,,0.00,,2013-04-18 16:52:00,
2013-04-18 12:03:00,32.0,30.0,-100.00,NE,35,7.0,14.0,92,0.00,,,0.00,,2013-04-18 17:03:00,
2013-04-18 12:12:00,31.0,30.0,-100.00,North,10,10.0,16.0,94,0.00,,,0.00,,2013-04-18 17:12:00,
2013-04-18 12:22:00,32.0,30.0,-100.00,NNE,25,6.0,13.0,95,0.00,,,0.00,,2013-04-18 17:22:00,
2013-04-18 12:33:00,32.0,30.0,-100.00,NNE,25,6.0,13.0,95,0.00,,,0.00,,2013-04-18 17:33:00,
2013-04-18 12:42:00,32.0,30.0,-100.00,NE,35,7.0,13.0,95,0.00,,,0.00,,2013-04-18 17:42:00,
2013-04-18 12:52:00,32.0,30.0,-100.00,NNE,30,9.0,16.0,95,0.00,,,0.00,,2013-04-18 17:52:00,
2013-04-18 13:02:00,32.0,30.0,-100.00,North,0,7.0,17.0,96,0.00,,,0.00,,2013-04-18 18:02:00,
2013-04-18 13:12:00,32.0,30.0,-100.00,NNE,15,6.0,13.0,96,0.00,,,0.00,,2013-04-18 18:12:00,
2013-04-18 13:22:00,32.0,30.0,-100.00,North,0,6.0,12.0,96,0.00,,,0.00,,2013-04-18 18:22:00,
2013-04-18 13:32:00,32.0,32.0,-100.00,North,5,7.0,12.0,96,0.00,,,0.00,,2013-04-18 18:32:00,
2013-04-18 13:42:00,32.0,32.0,-100.00,North,5,6.0,15.0,96,0.00,,,0.00,,2013-04-18 18:42:00,
2013-04-18 13:52:00,32.0,32.0,-100.00,NNE,15,6.0,12.0,96,0.00,,,0.00,,2013-04-18 18:52:00,
2013-04-18 14:02:00,32.0,32.0,-100.00,NNE,20,7.0,14.0,96,0.00,,,0.00,,2013-04-18 19:02:00,
2013-04-18 14:12:00,32.0,30.0,-100.00,NNE,20,6.0,14.0,97,0.00,,,0.00,,2013-04-18 19:12:00,
2013-04-18 14:22:00,32.0,32.0,-100.00,North,10,7.0,12.0,97,0.00,,,0.00,,2013-04-18 19:22:00,
2013-04-18 14:32:00,32.0,32.0,-100.00,NNE,30,7.0,17.0,97,0.00,,,0.00,,2013-04-18 19:32:00,
2013-04-18 14:42:00,32.0,32.0,-100.00,North,0,4.0,14.0,97,0.00,,,0.00,,2013-04-18 19:42:00,
2013-04-18 14:52:00,32.0,32.0,-100.00,NNE,15,7.0,16.0,97,0.00,,,0.00,,2013-04-18 19:52:00,
2013-04-18 15:02:00,32.0,32.0,-100.00,North,350,8.0,13.0,97,0.00,,,0.00,,2013-04-18 20:02:00,
2013-04-18 15:12:00,33.0,32.0,-100.00,North,0,6.0,13.0,97,0.00,,,0.00,,2013-04-18 20:12:00,
2013-04-18 15:22:00,33.0,32.0,-100.00,NNE,30,6.0,13.0,97,0.00,,,0.00,,2013-04-18 20:22:00,
2013-04-18 15:32:00,33.0,32.0,-100.00,NNE,15,7.0,16.0,97,0.00,,,0.00,,2013-04-18 20:32:00,
2013-04-18 15:42:00,33.0,32.0,-100.00,NNE,20,6.0,10.0,97,0.00,,,0.00,,2013-04-18 20:42:00,
2013-04-18 15:52:00,32.0,32.0,-100.00,North,5,7.0,16.0,97,0.00,,,0.00,,2013-04-18 20:52:00,
2013-04-18 16:02:00,32.0,32.0,-100.00,NNE,20,4.0,19.0,98,0.00,,,0.00,,2013-04-18 21:02:00,
2013-04-18 16:12:00,33.0,32.0,-100.00,North,5,4.0,11.0,98,0.00,,,0.00,,2013-04-18 21:12:00,
2013-04-18 16:22:00,32.0,32.0,-100.00,NE,55,6.0,17.0,97,0.00,,,0.00,,2013-04-18 21:22:00,
2013-04-18 16:32:00,32.0,32.0,-100.00,NNW,345,6.0,17.0,98,0.00,,,0.00,,2013-04-18 21:32:00,
2013-04-18 16:43:00,33.0,32.0,-100.00,NNE,15,6.0,12.0,98,0.00,,,0.00,,2013-04-18 21:43:00,
2013-04-18 16:52:00,33.0,32.0,-100.00,NNE,15,6.0,13.0,97,0.00,,,0.00,,2013-04-18 21:52:00,
2013-04-18 17:02:00,32.0,32.0,-100.00,North,5,6.0,16.0,97,0.00,,,0.00,,2013-04-18 22:02:00,
2013-04-18 17:13:00,32.0,32.0,-100.00,North,5,7.0,14.0,97,0.00,,,0.00,,2013-04-18 22:13:00,
2013-04-18 17:22:00,32.0,32.0,-100.00,NNE,15,4.0,15.0,98,0.00,,,0.00,,2013-04-18 22:22:00,
2013-04-18 17:32:00,32.0,32.0,-100.00,North,5,8.0,16.0,98,0.00,,,0.00,,2013-04-18 22:32:00,
2013-04-18 17:42:00,32.0,32.0,-100.00,North,0,6.0,18.0,98,0.00,,,0.00,,2013-04-18 22:42:00,
2013-04-18 17:52:00,32.0,32.0,-100.00,NNE,30,4.0,16.0,98,0.00,,,0.00,,2013-04-18 22:52:00,
2013-04-18 18:03:00,32.0,32.0,-100.00,North,0,6.0,15.0,98,0.00,,,0.00,,2013-04-18 23:03:00,
2013-04-18 18:11:00,32.0,32.0,-100.00,NNE,30,7.0,13.0,98,0.00,,,0.00,,2013-04-18 23:11:00,
2013-04-18 18:21:00,32.0,32.0,-100.00,NNE,20,7.0,18.0,98,0.00,,,0.00,,2013-04-18 23:21:00,
2013-04-18 18:32:00,32.0,32.0,-100.00,North,355,6.0,18.0,98,0.00,,,0.00,,2013-04-18 23:32:00,
2013-04-18 18:42:00,32.0,32.0,-100.00,North,350,6.0,17.0,98,0.00,,,0.00,,2013-04-18 23:42:00,
2013-04-18 18:52:00,32.0,32.0,-100.00,North,355,6.0,15.0,98,0.00,,,0.00,,2013-04-18 23:52:00,
2013-04-18 19:01:00,32.0,32.0,-100.00,North,355,7.0,16.0,98,0.00,,,0.00,,2013-04-19 00:01:00,
2013-04-18 19:21:00,32.0,30.0,-100.00,North,355,4.0,12.0,98,0.00,,,0.00,,2013-04-19 00:21:00,
2013-04-18 19:32:00,31.0,30.0,-100.00,NNE,25,7.0,16.0,98,0.00,,,0.00,,2013-04-19 00:32:00,
2013-04-18 19:42:00,31.0,30.0,-100.00,NNE,20,6.0,16.0,98,0.00,,,0.00,,2013-04-19 00:42:00,
2013-04-18 19:51:00,31.0,30.0,-100.00,NNE,15,4.0,13.0,98,0.00,,,0.00,,2013-04-19 00:51:00,
2013-04-18 20:01:00,31.0,30.0,-100.00,North,10,6.0,16.0,98,0.00,,,0.00,,2013-04-19 01:01:00,
2013-04-18 20:11:00,31.0,30.0,-100.00,North,0,9.0,16.0,98,0.00,,,0.00,,2013-04-19 01:11:00,
2013-04-18 20:21:00,31.0,30.0,-100.00,North,10,4.0,14.0,98,0.00,,,0.00,,2013-04-19 01:21:00,
2013-04-18 20:31:00,31.0,30.0,-100.00,NE,35,7.0,17.0,98,0.00,,,0.00,,2013-04-19 01:31:00,
2013-04-18 20:42:00,31.0,30.0,-100.00,NNW,335,4.0,14.0,98,0.00,,,0.00,,2013-04-19 01:42:00,
2013-04-18 20:52:00,31.0,30.0,-100.00,NNW,345,5.0,12.0,98,0.00,,,0.00,,2013-04-19 01:52:00,
2013-04-18 21:01:00,31.0,30.0,-100.00,North,0,6.0,15.0,98,0.00,,,0.00,,2013-04-19 02:01:00,
2013-04-18 21:11:00,31.0,30.0,-100.00,NNW,340,4.0,15.0,98,0.00,,,0.00,,2013-04-19 02:11:00,
2013-04-18 21:21:00,31.0,30.0,-100.00,NE,40,4.0,16.0,98,0.00,,,0.00,,2013-04-19 02:21:00,
2013-04-18 21:32:00,31.0,30.0,-100.00,North,0,6.0,18.0,98,0.00,,,0.00,,2013-04-19 02:32:00,
2013-04-18 21:42:00,31.0,30.0,-100.00,North,350,6.0,20.0,98,0.00,,,0.00,,2013-04-19 02:42:00,
2013-04-18 21:51:00,31.0,30.0,-100.00,NW,310,4.0,15.0,98,0.00,,,0.00,,2013-04-19 02:51:00,
2013-04-18 22:01:00,31.0,30.0,-100.00,NW,315,4.0,13.0,98,0.00,,,0.00,,2013-04-19 03:01:00,
2013-04-18 22:11:00,31.0,30.0,-100.00,NW,325,6.0,15.0,98,0.00,,,0.00,,2013-04-19 03:11:00,
2013-04-18 22:21:00,31.0,30.0,-100.00,NNW,345,9.0,16.0,98,0.00,,,0.00,,2013-04-19 03:21:00,
2013-04-18 22:33:00,31.0,30.0,-100.00,NNW,340,7.0,19.0,98,0.00,,,0.00,,2013-04-19 03:33:00,
2013-04-18 22:43:00,30.0,30.0,-100.00,NW,320,6.0,17.0,98,0.00,,,0.00,,2013-04-19 03:43:00,
2013-04-18 22:53:00,30.0,30.0,-100.00,North,5,6.0,21.0,98,0.00,,,0.00,,2013-04-19 03:53:00,
2013-04-18 23:03:00,30.0,30.0,-100.00,North,0,6.0,17.0,98,0.00,,,0.00,,2013-04-19 04:03:00,
2013-04-18 23:13:00,30.0,30.0,-100.00,NNE,20,7.0,18.0,98,0.00,,,0.00,,2013-04-19 04:13:00,
2013-04-18 23:23:00,30.0,30.0,-100.00,NNW,330,8.0,17.0,98,0.00,,,0.00,,2013-04-19 04:23:00,
2013-04-18 23:33:00,30.0,30.0,-100.00,NNW,335,6.0,16.0,98,0.00,,,0.00,,2013-04-19 04:33:00,
2013-04-18 23:43:00,30.0,30.0,-100.00,NNW,345,8.0,17.0,98,0.00,,,0.00,,2013-04-19 04:43:00,
2013-04-18 23:52:00,30.0,30.0,-100.00,NNE,15,6.0,15.0,98,0.00,,,0.00,,2013-04-19 04:52:00,